sensor_id;sensor_type;location;lat;lon;timestamp;P1;durP1;ratioP1;P2;durP2;ratioP2
20828;SDS011;10575;50.124;8.582;2022-09-03T00:00:19;2.20;;;1.33;;
20828;SDS011;10575;50.124;8.582;2022-09-03T00:05:45;2.60;;;1.40;;
20828;SDS011;10575;50.124;8.582;2022-09-03T00:08:56;3.35;;;1.40;;
20828;SDS011;10575;50.124;8.582;2022-09-03T00:11:50;1.48;;;1.20;;
20828;SDS011;10575;50.124;8.582;2022-09-03T00:14:42;1.85;;;1.20;;
20828;SDS011;10575;50.124;8.582;2022-09-03T00:17:26;3.28;;;1.70;;
20828;SDS011;10575;50.124;8.582;2022-09-03T00:19:57;2.00;;;1.42;;
20828;SDS011;10575;50.124;8.582;2022-09-03T00:22:36;3.05;;;1.48;;
20828;SDS011;10575;50.124;8.582;2022-09-03T00:25:06;2.38;;;1.50;;
20828;SDS011;10575;50.124;8.582;2022-09-03T00:27:38;2.80;;;1.40;;
20828;SDS011;10575;50.124;8.582;2022-09-03T00:30:10;1.70;;;1.48;;
20828;SDS011;10575;50.124;8.582;2022-09-03T00:32:44;2.20;;;1.95;;
20828;SDS011;10575;50.124;8.582;2022-09-03T00:35:26;2.70;;;1.50;;
20828;SDS011;10575;50.124;8.582;2022-09-03T00:37:56;1.90;;;1.50;;
20828;SDS011;10575;50.124;8.582;2022-09-03T00:48:31;1.92;;;1.33;;
20828;SDS011;10575;50.124;8.582;2022-09-03T00:51:11;2.80;;;1.73;;
20828;SDS011;10575;50.124;8.582;2022-09-03T00:53:50;2.25;;;1.75;;
20828;SDS011;10575;50.124;8.582;2022-09-03T01:10:10;1.20;;;1.10;;
20828;SDS011;10575;50.124;8.582;2022-09-03T01:12:46;5.80;;;1.50;;
20828;SDS011;10575;50.124;8.582;2022-09-03T01:15:45;2.45;;;1.50;;
20828;SDS011;10575;50.124;8.582;2022-09-03T01:18:49;1.50;;;1.25;;
20828;SDS011;10575;50.124;8.582;2022-09-03T01:30:09;2.75;;;1.35;;
20828;SDS011;10575;50.124;8.582;2022-09-03T01:32:50;2.63;;;1.42;;
20828;SDS011;10575;50.124;8.582;2022-09-03T01:38:31;2.95;;;1.30;;
20828;SDS011;10575;50.124;8.582;2022-09-03T01:44:21;1.95;;;1.40;;
20828;SDS011;10575;50.124;8.582;2022-09-03T01:53:22;1.92;;;1.58;;
20828;SDS011;10575;50.124;8.582;2022-09-03T01:55:39;2.85;;;1.40;;
20828;SDS011;10575;50.124;8.582;2022-09-03T01:58:23;1.55;;;1.45;;
20828;SDS011;10575;50.124;8.582;2022-09-03T02:01:02;1.65;;;1.30;;
20828;SDS011;10575;50.124;8.582;2022-09-03T02:03:35;2.63;;;1.17;;
20828;SDS011;10575;50.124;8.582;2022-09-03T02:06:04;2.50;;;1.20;;
20828;SDS011;10575;50.124;8.582;2022-09-03T02:08:31;3.50;;;1.35;;
20828;SDS011;10575;50.124;8.582;2022-09-03T02:10:57;3.05;;;1.30;;
20828;SDS011;10575;50.124;8.582;2022-09-03T02:15:55;1.42;;;1.30;;
20828;SDS011;10575;50.124;8.582;2022-09-03T02:18:25;2.63;;;1.60;;
20828;SDS011;10575;50.124;8.582;2022-09-03T02:20:54;1.88;;;1.42;;
20828;SDS011;10575;50.124;8.582;2022-09-03T02:23:21;4.30;;;1.52;;
20828;SDS011;10575;50.124;8.582;2022-09-03T02:25:49;5.78;;;1.95;;
20828;SDS011;10575;50.124;8.582;2022-09-03T02:28:20;2.20;;;1.67;;
20828;SDS011;10575;50.124;8.582;2022-09-03T02:30:47;2.33;;;1.27;;
20828;SDS011;10575;50.124;8.582;2022-09-03T02:33:12;6.18;;;1.60;;
20828;SDS011;10575;50.124;8.582;2022-09-03T02:35:39;2.05;;;1.50;;
20828;SDS011;10575;50.124;8.582;2022-09-03T02:38:09;2.30;;;1.38;;
20828;SDS011;10575;50.124;8.582;2022-09-03T02:40:43;2.08;;;1.60;;
20828;SDS011;10575;50.124;8.582;2022-09-03T02:43:11;1.83;;;1.30;;
20828;SDS011;10575;50.124;8.582;2022-09-03T02:45:49;1.40;;;1.30;;
20828;SDS011;10575;50.124;8.582;2022-09-03T02:48:19;4.70;;;1.50;;
20828;SDS011;10575;50.124;8.582;2022-09-03T02:50:47;1.88;;;1.50;;
20828;SDS011;10575;50.124;8.582;2022-09-03T02:53:13;1.65;;;1.55;;
20828;SDS011;10575;50.124;8.582;2022-09-03T02:55:39;1.63;;;1.20;;
20828;SDS011;10575;50.124;8.582;2022-09-03T02:58:04;2.35;;;1.52;;
20828;SDS011;10575;50.124;8.582;2022-09-03T03:00:30;3.25;;;1.50;;
20828;SDS011;10575;50.124;8.582;2022-09-03T03:02:57;4.43;;;1.50;;
20828;SDS011;10575;50.124;8.582;2022-09-03T03:05:29;2.22;;;1.48;;
20828;SDS011;10575;50.124;8.582;2022-09-03T03:08:11;3.25;;;1.73;;
20828;SDS011;10575;50.124;8.582;2022-09-03T03:10:39;1.40;;;1.30;;
20828;SDS011;10575;50.124;8.582;2022-09-03T03:13:05;4.15;;;1.67;;
20828;SDS011;10575;50.124;8.582;2022-09-03T03:15:31;1.85;;;1.50;;
20828;SDS011;10575;50.124;8.582;2022-09-03T03:17:56;1.88;;;1.60;;
20828;SDS011;10575;50.124;8.582;2022-09-03T03:20:22;1.60;;;1.50;;
20828;SDS011;10575;50.124;8.582;2022-09-03T03:22:48;2.10;;;1.45;;
20828;SDS011;10575;50.124;8.582;2022-09-03T03:25:13;2.95;;;1.30;;
20828;SDS011;10575;50.124;8.582;2022-09-03T03:27:39;2.35;;;1.40;;
20828;SDS011;10575;50.124;8.582;2022-09-03T03:30:06;1.40;;;1.30;;
20828;SDS011;10575;50.124;8.582;2022-09-03T03:32:34;2.35;;;1.40;;
20828;SDS011;10575;50.124;8.582;2022-09-03T03:35:00;2.20;;;1.40;;
20828;SDS011;10575;50.124;8.582;2022-09-03T03:37:26;2.28;;;1.45;;
20828;SDS011;10575;50.124;8.582;2022-09-03T03:39:51;2.38;;;1.35;;
20828;SDS011;10575;50.124;8.582;2022-09-03T03:42:17;3.58;;;1.77;;
20828;SDS011;10575;50.124;8.582;2022-09-03T03:44:42;8.93;;;1.55;;
20828;SDS011;10575;50.124;8.582;2022-09-03T03:47:08;3.10;;;1.70;;
20828;SDS011;10575;50.124;8.582;2022-09-03T03:49:33;2.70;;;1.50;;
20828;SDS011;10575;50.124;8.582;2022-09-03T03:51:59;4.90;;;1.55;;
20828;SDS011;10575;50.124;8.582;2022-09-03T03:54:27;2.92;;;1.52;;
20828;SDS011;10575;50.124;8.582;2022-09-03T03:56:52;1.70;;;1.60;;
20828;SDS011;10575;50.124;8.582;2022-09-03T03:59:18;2.53;;;1.40;;
20828;SDS011;10575;50.124;8.582;2022-09-03T04:01:43;4.07;;;1.38;;
20828;SDS011;10575;50.124;8.582;2022-09-03T04:04:09;3.90;;;1.58;;
20828;SDS011;10575;50.124;8.582;2022-09-03T04:06:34;2.28;;;1.80;;
20828;SDS011;10575;50.124;8.582;2022-09-03T04:09:00;2.42;;;1.65;;
20828;SDS011;10575;50.124;8.582;2022-09-03T04:11:25;1.40;;;1.30;;
20828;SDS011;10575;50.124;8.582;2022-09-03T04:13:51;2.45;;;1.48;;
20828;SDS011;10575;50.124;8.582;2022-09-03T04:16:21;3.03;;;1.40;;
20828;SDS011;10575;50.124;8.582;2022-09-03T04:18:48;1.83;;;1.25;;
20828;SDS011;10575;50.124;8.582;2022-09-03T04:21:17;2.65;;;1.55;;
20828;SDS011;10575;50.124;8.582;2022-09-03T04:23:45;4.28;;;1.55;;
20828;SDS011;10575;50.124;8.582;2022-09-03T04:26:12;1.60;;;1.48;;
20828;SDS011;10575;50.124;8.582;2022-09-03T04:28:39;2.08;;;1.52;;
20828;SDS011;10575;50.124;8.582;2022-09-03T04:31:09;2.20;;;1.50;;
20828;SDS011;10575;50.124;8.582;2022-09-03T04:33:36;2.17;;;1.60;;
20828;SDS011;10575;50.124;8.582;2022-09-03T04:36:14;3.33;;;1.55;;
20828;SDS011;10575;50.124;8.582;2022-09-03T04:38:42;1.98;;;1.20;;
20828;SDS011;10575;50.124;8.582;2022-09-03T04:41:09;1.35;;;1.25;;
20828;SDS011;10575;50.124;8.582;2022-09-03T04:43:36;2.25;;;1.30;;
20828;SDS011;10575;50.124;8.582;2022-09-03T04:46:04;3.08;;;1.30;;
20828;SDS011;10575;50.124;8.582;2022-09-03T04:48:31;2.33;;;1.27;;
20828;SDS011;10575;50.124;8.582;2022-09-03T04:51:04;2.75;;;1.50;;
20828;SDS011;10575;50.124;8.582;2022-09-03T04:53:32;2.83;;;1.30;;
20828;SDS011;10575;50.124;8.582;2022-09-03T04:55:59;5.68;;;1.85;;
20828;SDS011;10575;50.124;8.582;2022-09-03T04:58:25;2.47;;;1.48;;
20828;SDS011;10575;50.124;8.582;2022-09-03T05:00:50;1.27;;;1.17;;
20828;SDS011;10575;50.124;8.582;2022-09-03T05:03:16;1.50;;;1.40;;
20828;SDS011;10575;50.124;8.582;2022-09-03T05:05:42;2.85;;;1.50;;
20828;SDS011;10575;50.124;8.582;2022-09-03T05:08:15;3.17;;;1.63;;
20828;SDS011;10575;50.124;8.582;2022-09-03T05:10:40;5.47;;;1.50;;
20828;SDS011;10575;50.124;8.582;2022-09-03T05:13:06;2.35;;;1.52;;
20828;SDS011;10575;50.124;8.582;2022-09-03T05:15:31;3.22;;;1.40;;
20828;SDS011;10575;50.124;8.582;2022-09-03T05:18:00;6.97;;;1.85;;
20828;SDS011;10575;50.124;8.582;2022-09-03T05:20:27;2.58;;;1.52;;
20828;SDS011;10575;50.124;8.582;2022-09-03T05:23:00;3.17;;;1.60;;
20828;SDS011;10575;50.124;8.582;2022-09-03T05:25:27;2.70;;;1.77;;
20828;SDS011;10575;50.124;8.582;2022-09-03T05:27:56;3.17;;;1.60;;
20828;SDS011;10575;50.124;8.582;2022-09-03T05:30:22;2.38;;;1.30;;
20828;SDS011;10575;50.124;8.582;2022-09-03T05:32:48;2.83;;;1.80;;
20828;SDS011;10575;50.124;8.582;2022-09-03T05:35:13;3.38;;;1.52;;
20828;SDS011;10575;50.124;8.582;2022-09-03T05:37:39;3.13;;;1.55;;
20828;SDS011;10575;50.124;8.582;2022-09-03T05:40:05;2.40;;;1.40;;
20828;SDS011;10575;50.124;8.582;2022-09-03T05:42:32;3.53;;;1.88;;
20828;SDS011;10575;50.124;8.582;2022-09-03T05:44:59;2.58;;;1.77;;
20828;SDS011;10575;50.124;8.582;2022-09-03T05:47:24;2.50;;;1.50;;
20828;SDS011;10575;50.124;8.582;2022-09-03T05:49:50;5.25;;;1.50;;
20828;SDS011;10575;50.124;8.582;2022-09-03T05:52:15;5.07;;;1.88;;
20828;SDS011;10575;50.124;8.582;2022-09-03T05:54:43;1.90;;;1.50;;
20828;SDS011;10575;50.124;8.582;2022-09-03T05:57:08;1.60;;;1.50;;
20828;SDS011;10575;50.124;8.582;2022-09-03T05:59:34;3.63;;;1.60;;
20828;SDS011;10575;50.124;8.582;2022-09-03T06:01:59;2.38;;;1.60;;
20828;SDS011;10575;50.124;8.582;2022-09-03T06:04:25;1.63;;;1.50;;
20828;SDS011;10575;50.124;8.582;2022-09-03T06:06:50;2.03;;;1.52;;
20828;SDS011;10575;50.124;8.582;2022-09-03T06:09:17;3.97;;;2.17;;
20828;SDS011;10575;50.124;8.582;2022-09-03T06:11:44;2.95;;;1.55;;
20828;SDS011;10575;50.124;8.582;2022-09-03T06:14:12;4.30;;;1.80;;
20828;SDS011;10575;50.124;8.582;2022-09-03T06:16:39;2.05;;;1.60;;
20828;SDS011;10575;50.124;8.582;2022-09-03T06:19:07;3.20;;;1.40;;
20828;SDS011;10575;50.124;8.582;2022-09-03T06:21:38;2.35;;;1.60;;
20828;SDS011;10575;50.124;8.582;2022-09-03T06:24:07;3.80;;;1.60;;
20828;SDS011;10575;50.124;8.582;2022-09-03T06:26:35;3.53;;;1.60;;
20828;SDS011;10575;50.124;8.582;2022-09-03T06:29:01;2.22;;;1.40;;
20828;SDS011;10575;50.124;8.582;2022-09-03T06:31:26;3.72;;;1.60;;
20828;SDS011;10575;50.124;8.582;2022-09-03T06:33:52;3.80;;;1.50;;
20828;SDS011;10575;50.124;8.582;2022-09-03T06:36:18;6.03;;;1.70;;
20828;SDS011;10575;50.124;8.582;2022-09-03T06:38:45;6.60;;;1.48;;
20828;SDS011;10575;50.124;8.582;2022-09-03T06:41:13;2.10;;;1.63;;
20828;SDS011;10575;50.124;8.582;2022-09-03T06:43:48;3.25;;;1.73;;
20828;SDS011;10575;50.124;8.582;2022-09-03T06:46:15;3.50;;;1.60;;
20828;SDS011;10575;50.124;8.582;2022-09-03T06:48:41;4.57;;;1.80;;
20828;SDS011;10575;50.124;8.582;2022-09-03T06:51:11;2.65;;;1.80;;
20828;SDS011;10575;50.124;8.582;2022-09-03T06:53:46;2.03;;;1.67;;
20828;SDS011;10575;50.124;8.582;2022-09-03T06:56:17;3.22;;;1.80;;
20828;SDS011;10575;50.124;8.582;2022-09-03T06:58:50;2.40;;;1.50;;
20828;SDS011;10575;50.124;8.582;2022-09-03T07:01:17;2.20;;;1.77;;
20828;SDS011;10575;50.124;8.582;2022-09-03T07:03:44;2.95;;;1.70;;
20828;SDS011;10575;50.124;8.582;2022-09-03T07:06:13;3.95;;;1.92;;
20828;SDS011;10575;50.124;8.582;2022-09-03T07:08:40;1.80;;;1.70;;
20828;SDS011;10575;50.124;8.582;2022-09-03T07:11:07;4.18;;;1.80;;
20828;SDS011;10575;50.124;8.582;2022-09-03T07:13:38;5.28;;;1.58;;
20828;SDS011;10575;50.124;8.582;2022-09-03T07:16:09;4.18;;;2.15;;
20828;SDS011;10575;50.124;8.582;2022-09-03T07:18:40;2.00;;;1.80;;
20828;SDS011;10575;50.124;8.582;2022-09-03T07:21:16;4.28;;;2.22;;
20828;SDS011;10575;50.124;8.582;2022-09-03T07:23:44;4.72;;;2.15;;
20828;SDS011;10575;50.124;8.582;2022-09-03T07:26:12;2.90;;;1.45;;
20828;SDS011;10575;50.124;8.582;2022-09-03T07:28:39;4.20;;;2.17;;
20828;SDS011;10575;50.124;8.582;2022-09-03T07:31:10;3.60;;;2.15;;
20828;SDS011;10575;50.124;8.582;2022-09-03T07:33:39;1.60;;;1.50;;
20828;SDS011;10575;50.124;8.582;2022-09-03T07:36:08;2.33;;;1.63;;
20828;SDS011;10575;50.124;8.582;2022-09-03T07:38:35;2.20;;;1.77;;
20828;SDS011;10575;50.124;8.582;2022-09-03T07:41:02;3.38;;;2.00;;
20828;SDS011;10575;50.124;8.582;2022-09-03T07:43:34;2.47;;;1.75;;
20828;SDS011;10575;50.124;8.582;2022-09-03T07:46:02;2.30;;;2.00;;
20828;SDS011;10575;50.124;8.582;2022-09-03T07:48:28;4.38;;;1.95;;
20828;SDS011;10575;50.124;8.582;2022-09-03T07:50:58;2.33;;;1.70;;
20828;SDS011;10575;50.124;8.582;2022-09-03T07:53:25;2.85;;;1.83;;
20828;SDS011;10575;50.124;8.582;2022-09-03T07:55:52;2.08;;;1.73;;
20828;SDS011;10575;50.124;8.582;2022-09-03T07:58:18;2.42;;;2.03;;
20828;SDS011;10575;50.124;8.582;2022-09-03T08:00:48;3.30;;;2.25;;
20828;SDS011;10575;50.124;8.582;2022-09-03T08:03:13;3.42;;;2.20;;
20828;SDS011;10575;50.124;8.582;2022-09-03T08:05:39;2.10;;;1.90;;
20828;SDS011;10575;50.124;8.582;2022-09-03T08:08:05;6.18;;;1.90;;
20828;SDS011;10575;50.124;8.582;2022-09-03T08:10:35;7.72;;;2.33;;
20828;SDS011;10575;50.124;8.582;2022-09-03T08:13:02;7.70;;;1.95;;
20828;SDS011;10575;50.124;8.582;2022-09-03T08:15:29;2.20;;;2.00;;
20828;SDS011;10575;50.124;8.582;2022-09-03T08:17:55;6.40;;;2.17;;
20828;SDS011;10575;50.124;8.582;2022-09-03T08:20:21;3.50;;;2.20;;
20828;SDS011;10575;50.124;8.582;2022-09-03T08:22:47;4.10;;;2.10;;
20828;SDS011;10575;50.124;8.582;2022-09-03T08:25:12;4.70;;;2.35;;
20828;SDS011;10575;50.124;8.582;2022-09-03T08:27:38;2.75;;;1.88;;
20828;SDS011;10575;50.124;8.582;2022-09-03T08:30:04;4.63;;;2.80;;
20828;SDS011;10575;50.124;8.582;2022-09-03T08:32:36;3.15;;;2.25;;
20828;SDS011;10575;50.124;8.582;2022-09-03T08:35:03;3.65;;;2.30;;
20828;SDS011;10575;50.124;8.582;2022-09-03T08:37:33;8.05;;;2.80;;
20828;SDS011;10575;50.124;8.582;2022-09-03T08:39:59;7.95;;;2.40;;
20828;SDS011;10575;50.124;8.582;2022-09-03T08:45:24;7.47;;;2.40;;
20828;SDS011;10575;50.124;8.582;2022-09-03T08:47:57;3.80;;;2.38;;
20828;SDS011;10575;50.124;8.582;2022-09-03T08:50:42;4.07;;;2.25;;
20828;SDS011;10575;50.124;8.582;2022-09-03T08:55:50;3.10;;;2.10;;
20828;SDS011;10575;50.124;8.582;2022-09-03T08:58:24;2.75;;;2.25;;
20828;SDS011;10575;50.124;8.582;2022-09-03T09:03:33;3.15;;;2.25;;
20828;SDS011;10575;50.124;8.582;2022-09-03T09:06:26;2.22;;;1.90;;
20828;SDS011;10575;50.124;8.582;2022-09-03T09:14:35;3.13;;;2.20;;
20828;SDS011;10575;50.124;8.582;2022-09-03T09:17:24;2.35;;;1.77;;
20828;SDS011;10575;50.124;8.582;2022-09-03T09:22:54;1.90;;;1.70;;
20828;SDS011;10575;50.124;8.582;2022-09-03T09:25:24;2.75;;;2.10;;
20828;SDS011;10575;50.124;8.582;2022-09-03T09:30:54;2.80;;;2.03;;
20828;SDS011;10575;50.124;8.582;2022-09-03T09:33:21;3.13;;;2.03;;
20828;SDS011;10575;50.124;8.582;2022-09-03T09:35:47;3.38;;;2.13;;
20828;SDS011;10575;50.124;8.582;2022-09-03T09:38:13;2.20;;;1.98;;
20828;SDS011;10575;50.124;8.582;2022-09-03T09:40:41;4.82;;;2.20;;
20828;SDS011;10575;50.124;8.582;2022-09-03T09:43:09;3.47;;;2.35;;
20828;SDS011;10575;50.124;8.582;2022-09-03T09:45:45;2.42;;;2.17;;
20828;SDS011;10575;50.124;8.582;2022-09-03T09:48:25;2.20;;;2.00;;
20828;SDS011;10575;50.124;8.582;2022-09-03T09:51:05;2.92;;;2.38;;
20828;SDS011;10575;50.124;8.582;2022-09-03T09:53:34;6.35;;;3.10;;
20828;SDS011;10575;50.124;8.582;2022-09-03T09:56:00;4.35;;;3.33;;
20828;SDS011;10575;50.124;8.582;2022-09-03T09:58:29;3.40;;;2.70;;
20828;SDS011;10575;50.124;8.582;2022-09-03T10:01:01;3.30;;;3.00;;
20828;SDS011;10575;50.124;8.582;2022-09-03T10:03:51;4.13;;;2.33;;
20828;SDS011;10575;50.124;8.582;2022-09-03T10:06:19;3.20;;;2.30;;
20828;SDS011;10575;50.124;8.582;2022-09-03T10:11:38;4.43;;;4.03;;
20828;SDS011;10575;50.124;8.582;2022-09-03T10:14:09;3.55;;;2.55;;
20828;SDS011;10575;50.124;8.582;2022-09-03T10:16:43;3.42;;;2.83;;
20828;SDS011;10575;50.124;8.582;2022-09-03T10:19:18;5.47;;;2.50;;
20828;SDS011;10575;50.124;8.582;2022-09-03T10:22:00;3.83;;;3.05;;
20828;SDS011;10575;50.124;8.582;2022-09-03T10:24:57;3.47;;;2.65;;
20828;SDS011;10575;50.124;8.582;2022-09-03T10:27:26;3.88;;;3.33;;
20828;SDS011;10575;50.124;8.582;2022-09-03T10:29:51;2.40;;;2.03;;
20828;SDS011;10575;50.124;8.582;2022-09-03T10:35:03;4.45;;;2.65;;
20828;SDS011;10575;50.124;8.582;2022-09-03T10:37:38;3.08;;;2.75;;
20828;SDS011;10575;50.124;8.582;2022-09-03T10:45:57;3.70;;;2.72;;
20828;SDS011;10575;50.124;8.582;2022-09-03T10:51:32;4.20;;;2.80;;
20828;SDS011;10575;50.124;8.582;2022-09-03T10:54:21;3.92;;;2.63;;
20828;SDS011;10575;50.124;8.582;2022-09-03T10:56:56;4.25;;;2.80;;
20828;SDS011;10575;50.124;8.582;2022-09-03T11:05:15;4.18;;;2.50;;
20828;SDS011;10575;50.124;8.582;2022-09-03T11:07:58;2.95;;;2.42;;
20828;SDS011;10575;50.124;8.582;2022-09-03T11:10:31;3.08;;;2.40;;
20828;SDS011;10575;50.124;8.582;2022-09-03T11:13:10;5.13;;;2.30;;
20828;SDS011;10575;50.124;8.582;2022-09-03T11:15:51;3.55;;;2.60;;
20828;SDS011;10575;50.124;8.582;2022-09-03T11:18:20;2.75;;;2.13;;
20828;SDS011;10575;50.124;8.582;2022-09-03T11:20:52;3.60;;;2.55;;
20828;SDS011;10575;50.124;8.582;2022-09-03T11:23:20;4.18;;;2.63;;
20828;SDS011;10575;50.124;8.582;2022-09-03T11:25:50;2.65;;;2.45;;
20828;SDS011;10575;50.124;8.582;2022-09-03T11:31:11;4.50;;;4.10;;
20828;SDS011;10575;50.124;8.582;2022-09-03T11:33:47;4.07;;;2.92;;
20828;SDS011;10575;50.124;8.582;2022-09-03T11:36:28;3.90;;;2.85;;
20828;SDS011;10575;50.124;8.582;2022-09-03T11:38:56;4.60;;;2.72;;
20828;SDS011;10575;50.124;8.582;2022-09-03T11:41:23;5.25;;;2.97;;
20828;SDS011;10575;50.124;8.582;2022-09-03T11:43:58;3.60;;;3.03;;
20828;SDS011;10575;50.124;8.582;2022-09-03T11:46:40;3.85;;;3.08;;
20828;SDS011;10575;50.124;8.582;2022-09-03T11:49:24;3.20;;;2.40;;
20828;SDS011;10575;50.124;8.582;2022-09-03T11:52:00;3.53;;;3.15;;
20828;SDS011;10575;50.124;8.582;2022-09-03T11:54:31;6.55;;;3.20;;
20828;SDS011;10575;50.124;8.582;2022-09-03T11:57:13;2.60;;;2.40;;
20828;SDS011;10575;50.124;8.582;2022-09-03T11:59:47;3.88;;;2.95;;
20828;SDS011;10575;50.124;8.582;2022-09-03T12:02:29;3.25;;;2.58;;
20828;SDS011;10575;50.124;8.582;2022-09-03T12:05:05;3.25;;;2.78;;
20828;SDS011;10575;50.124;8.582;2022-09-03T12:08:21;4.03;;;2.55;;
20828;SDS011;10575;50.124;8.582;2022-09-03T12:13:34;4.70;;;3.80;;
20828;SDS011;10575;50.124;8.582;2022-09-03T12:16:21;2.92;;;2.45;;
20828;SDS011;10575;50.124;8.582;2022-09-03T12:19:02;3.72;;;3.33;;
20828;SDS011;10575;50.124;8.582;2022-09-03T12:21:37;4.25;;;3.20;;
20828;SDS011;10575;50.124;8.582;2022-09-03T12:24:04;3.88;;;2.72;;
20828;SDS011;10575;50.124;8.582;2022-09-03T12:26:37;3.60;;;2.80;;
20828;SDS011;10575;50.124;8.582;2022-09-03T12:29:04;5.25;;;3.92;;
20828;SDS011;10575;50.124;8.582;2022-09-03T12:31:31;4.00;;;3.20;;
20828;SDS011;10575;50.124;8.582;2022-09-03T12:34:11;9.50;;;3.50;;
20828;SDS011;10575;50.124;8.582;2022-09-03T12:39:28;3.92;;;3.00;;
20828;SDS011;10575;50.124;8.582;2022-09-03T12:44:37;3.83;;;3.20;;
20828;SDS011;10575;50.124;8.582;2022-09-03T12:47:06;3.67;;;3.25;;
20828;SDS011;10575;50.124;8.582;2022-09-03T12:49:42;5.63;;;3.03;;
20828;SDS011;10575;50.124;8.582;2022-09-03T12:54:53;3.58;;;3.05;;
20828;SDS011;10575;50.124;8.582;2022-09-03T12:57:29;6.32;;;3.15;;
20828;SDS011;10575;50.124;8.582;2022-09-03T12:59:59;3.80;;;3.45;;
20828;SDS011;10575;50.124;8.582;2022-09-03T13:02:40;3.95;;;3.55;;
20828;SDS011;10575;50.124;8.582;2022-09-03T13:05:15;6.25;;;3.60;;
20828;SDS011;10575;50.124;8.582;2022-09-03T13:07:45;2.92;;;2.28;;
20828;SDS011;10575;50.124;8.582;2022-09-03T13:10:22;3.00;;;2.20;;
20828;SDS011;10575;50.124;8.582;2022-09-03T13:12:51;2.88;;;2.05;;
20828;SDS011;10575;50.124;8.582;2022-09-03T13:15:22;2.40;;;2.20;;
20828;SDS011;10575;50.124;8.582;2022-09-03T13:23:43;2.55;;;2.33;;
20828;SDS011;10575;50.124;8.582;2022-09-03T13:26:28;2.80;;;2.50;;
20828;SDS011;10575;50.124;8.582;2022-09-03T13:29:13;2.45;;;2.25;;
20828;SDS011;10575;50.124;8.582;2022-09-03T13:31:56;3.97;;;2.45;;
20828;SDS011;10575;50.124;8.582;2022-09-03T13:39:56;3.40;;;3.10;;
20828;SDS011;10575;50.124;8.582;2022-09-03T13:42:37;2.50;;;2.30;;
20828;SDS011;10575;50.124;8.582;2022-09-03T13:48:07;2.63;;;2.42;;
20828;SDS011;10575;50.124;8.582;2022-09-03T13:51:02;2.42;;;2.22;;
20828;SDS011;10575;50.124;8.582;2022-09-03T13:56:03;3.22;;;2.90;;
20828;SDS011;10575;50.124;8.582;2022-09-03T13:58:42;2.13;;;1.92;;
20828;SDS011;10575;50.124;8.582;2022-09-03T14:01:27;2.90;;;1.90;;
20828;SDS011;10575;50.124;8.582;2022-09-03T14:04:20;1.90;;;1.77;;
20828;SDS011;10575;50.124;8.582;2022-09-03T14:06:57;3.72;;;1.63;;
20828;SDS011;10575;50.124;8.582;2022-09-03T14:12:43;2.65;;;1.50;;
20828;SDS011;10575;50.124;8.582;2022-09-03T14:15:16;2.03;;;1.83;;
20828;SDS011;10575;50.124;8.582;2022-09-03T14:17:56;2.20;;;2.03;;
20828;SDS011;10575;50.124;8.582;2022-09-03T14:20:55;3.90;;;2.20;;
20828;SDS011;10575;50.124;8.582;2022-09-03T14:26:48;2.65;;;2.17;;
20828;SDS011;10575;50.124;8.582;2022-09-03T14:29:14;2.67;;;1.90;;
20828;SDS011;10575;50.124;8.582;2022-09-03T14:40:13;2.70;;;2.08;;
20828;SDS011;10575;50.124;8.582;2022-09-03T14:43:03;1.98;;;1.70;;
20828;SDS011;10575;50.124;8.582;2022-09-03T14:48:45;3.05;;;2.10;;
20828;SDS011;10575;50.124;8.582;2022-09-03T15:00:14;2.90;;;2.05;;
20828;SDS011;10575;50.124;8.582;2022-09-03T15:05:40;2.38;;;1.80;;
20828;SDS011;10575;50.124;8.582;2022-09-03T15:10:57;1.70;;;1.60;;
20828;SDS011;10575;50.124;8.582;2022-09-03T15:19:03;2.75;;;1.90;;
20828;SDS011;10575;50.124;8.582;2022-09-03T15:24:50;2.92;;;1.75;;
20828;SDS011;10575;50.124;8.582;2022-09-03T15:30:34;2.58;;;1.73;;
20828;SDS011;10575;50.124;8.582;2022-09-03T15:33:27;1.88;;;1.77;;
20828;SDS011;10575;50.124;8.582;2022-09-03T15:36:19;1.80;;;1.60;;
20828;SDS011;10575;50.124;8.582;2022-09-03T15:38:56;1.70;;;1.60;;
20828;SDS011;10575;50.124;8.582;2022-09-03T15:44:13;2.20;;;2.00;;
20828;SDS011;10575;50.124;8.582;2022-09-03T15:46:54;1.80;;;1.70;;
20828;SDS011;10575;50.124;8.582;2022-09-03T15:49:50;2.28;;;2.08;;
20828;SDS011;10575;50.124;8.582;2022-09-03T15:57:56;3.38;;;1.67;;
20828;SDS011;10575;50.124;8.582;2022-09-03T16:03:37;1.77;;;1.63;;
20828;SDS011;10575;50.124;8.582;2022-09-03T16:06:30;2.88;;;2.03;;
20828;SDS011;10575;50.124;8.582;2022-09-03T16:09:17;3.83;;;2.25;;
20828;SDS011;10575;50.124;8.582;2022-09-03T16:12:00;2.42;;;2.22;;
20828;SDS011;10575;50.124;8.582;2022-09-03T16:14:39;2.67;;;1.95;;
20828;SDS011;10575;50.124;8.582;2022-09-03T16:20:02;2.00;;;1.80;;
20828;SDS011;10575;50.124;8.582;2022-09-03T16:22:53;2.40;;;2.20;;
20828;SDS011;10575;50.124;8.582;2022-09-03T16:25:35;2.67;;;2.30;;
20828;SDS011;10575;50.124;8.582;2022-09-03T16:28:15;4.22;;;2.03;;
20828;SDS011;10575;50.124;8.582;2022-09-03T16:31:03;3.35;;;2.20;;
20828;SDS011;10575;50.124;8.582;2022-09-03T16:33:39;2.45;;;1.95;;
20828;SDS011;10575;50.124;8.582;2022-09-03T16:36:17;2.40;;;2.20;;
20828;SDS011;10575;50.124;8.582;2022-09-03T16:39:04;1.92;;;1.83;;
20828;SDS011;10575;50.124;8.582;2022-09-03T16:41:52;2.60;;;2.10;;
20828;SDS011;10575;50.124;8.582;2022-09-03T16:44:42;2.10;;;1.90;;
20828;SDS011;10575;50.124;8.582;2022-09-03T16:55:49;3.08;;;1.98;;
20828;SDS011;10575;50.124;8.582;2022-09-03T17:06:55;3.33;;;2.30;;
20828;SDS011;10575;50.124;8.582;2022-09-03T17:15:23;1.85;;;1.30;;
20828;SDS011;10575;50.124;8.582;2022-09-03T17:18:04;1.23;;;1.10;;
20828;SDS011;10575;50.124;8.582;2022-09-03T17:25:50;1.88;;;1.55;;
20828;SDS011;10575;50.124;8.582;2022-09-03T17:31:23;2.10;;;1.45;;
20828;SDS011;10575;50.124;8.582;2022-09-03T17:36:36;1.35;;;0.95;;
20828;SDS011;10575;50.124;8.582;2022-09-03T17:39:24;3.05;;;1.70;;
20828;SDS011;10575;50.124;8.582;2022-09-03T17:41:51;1.65;;;1.20;;
20828;SDS011;10575;50.124;8.582;2022-09-03T17:47:11;1.10;;;0.50;;
20828;SDS011;10575;50.124;8.582;2022-09-03T17:49:57;1.95;;;0.68;;
20828;SDS011;10575;50.124;8.582;2022-09-03T17:52:34;2.10;;;0.50;;
20828;SDS011;10575;50.124;8.582;2022-09-03T17:55:11;1.23;;;0.82;;
20828;SDS011;10575;50.124;8.582;2022-09-03T18:01:09;1.58;;;0.75;;
20828;SDS011;10575;50.124;8.582;2022-09-03T18:03:40;1.35;;;1.02;;
20828;SDS011;10575;50.124;8.582;2022-09-03T18:06:30;1.10;;;0.90;;
20828;SDS011;10575;50.124;8.582;2022-09-03T18:09:08;2.10;;;1.10;;
20828;SDS011;10575;50.124;8.582;2022-09-03T18:11:54;2.25;;;0.88;;
20828;SDS011;10575;50.124;8.582;2022-09-03T18:17:05;1.92;;;1.02;;
20828;SDS011;10575;50.124;8.582;2022-09-03T18:22:24;1.67;;;1.10;;
20828;SDS011;10575;50.124;8.582;2022-09-03T18:25:32;2.10;;;1.05;;
20828;SDS011;10575;50.124;8.582;2022-09-03T18:28:20;4.05;;;1.90;;
20828;SDS011;10575;50.124;8.582;2022-09-03T18:31:14;2.38;;;1.10;;
20828;SDS011;10575;50.124;8.582;2022-09-03T18:34:01;1.52;;;0.70;;
20828;SDS011;10575;50.124;8.582;2022-09-03T18:36:46;2.17;;;1.08;;
20828;SDS011;10575;50.124;8.582;2022-09-03T18:39:30;1.15;;;0.90;;
20828;SDS011;10575;50.124;8.582;2022-09-03T18:45:45;0.88;;;0.65;;
20828;SDS011;10575;50.124;8.582;2022-09-03T18:48:48;0.75;;;0.60;;
20828;SDS011;10575;50.124;8.582;2022-09-03T18:55:12;1.30;;;0.90;;
20828;SDS011;10575;50.124;8.582;2022-09-03T19:07:02;2.08;;;1.15;;
20828;SDS011;10575;50.124;8.582;2022-09-03T19:10:07;2.95;;;1.10;;
20828;SDS011;10575;50.124;8.582;2022-09-03T19:13:18;3.33;;;1.20;;
20828;SDS011;10575;50.124;8.582;2022-09-03T19:16:26;3.58;;;1.10;;
20828;SDS011;10575;50.124;8.582;2022-09-03T19:22:37;1.17;;;1.00;;
20828;SDS011;10575;50.124;8.582;2022-09-03T19:25:23;2.22;;;1.40;;
20828;SDS011;10575;50.124;8.582;2022-09-03T19:28:11;2.95;;;1.60;;